Terminal Aerodrome Forecast
Issued by NWS St Louis, MO

Home | Current Version | Previous Version | Text Only | Print | Product List | Glossary On
Versions: 1 2 3 4 5 6 7 8 9 10 11 12 13 14 15 16 17 18 19 20 21 22 23
000
FTUS43 KLSX 271000 AAC
TAFCOU
TAF AMD
KCOU 271008Z 2710/2806 01010KT P6SM -SN SCT015 OVC050
      TEMPO 2710/2711 3SM -SN BKN007
     FM271100 35010KT P6SM BKN050
     FM280000 04006KT P6SM SCT100=

USA.gov is the U.S. government's official web portal to all federal, state and local government web resources and services.